PAY1992 KATL-KMEM
Flight info
| Callsign | PAY1992 |
|---|---|
| Flight time | N/A |
| Altitude | 32000 |
| Route | NASSA2 CHOOK DCT WASER VANZE3 |
| Aircraft | A20N/M-V/N |
Departure
| Time | N/A |
|---|---|
| Airport | Hartsfield Jackson Atlanta International Airport (KATL) |
Arrival
| Time | 2026-05-03 20:51 |
|---|---|
| Airport | Memphis International Airport (KMEM) |
| Time | Latitude | Longitude | Altitude | Speed | Heading |
|---|---|---|---|---|---|
| 2026-05-03 20:15 | 33.87230 | -87.08929 | 32192 ft | 415 kts | 278° |
| 2026-05-03 20:15 | 33.88395 | -87.15720 | 32191 ft | 415 kts | 279° |
| 2026-05-03 20:16 | 33.89557 | -87.22508 | 32190 ft | 416 kts | 279° |
| 2026-05-03 20:16 | 33.90718 | -87.29333 | 32192 ft | 417 kts | 279° |
| 2026-05-03 20:17 | 33.91909 | -87.36155 | 32192 ft | 419 kts | 281° |
| 2026-05-03 20:17 | 33.93529 | -87.42885 | 32193 ft | 422 kts | 285° |
| 2026-05-03 20:18 | 33.95688 | -87.49450 | 32193 ft | 426 kts | 291° |
| 2026-05-03 20:18 | 33.98385 | -87.55794 | 32193 ft | 429 kts | 296° |
| 2026-05-03 20:19 | 34.01351 | -87.62033 | 32194 ft | 431 kts | 296° |
| 2026-05-03 20:19 | 34.04343 | -87.68308 | 32200 ft | 431 kts | 296° |
| 2026-05-03 20:20 | 34.07320 | -87.74577 | 32200 ft | 432 kts | 296° |
| 2026-05-03 20:20 | 34.10309 | -87.80860 | 32186 ft | 432 kts | 296° |
| 2026-05-03 20:21 | 34.13317 | -87.87135 | 32182 ft | 432 kts | 296° |
| 2026-05-03 20:21 | 34.16293 | -87.93388 | 32184 ft | 432 kts | 296° |
| 2026-05-03 20:22 | 34.19278 | -87.99698 | 32184 ft | 433 kts | 296° |
| 2026-05-03 20:22 | 34.22304 | -88.05983 | 32188 ft | 434 kts | 297° |
| 2026-05-03 20:23 | 34.25409 | -88.12154 | 31808 ft | 426 kts | 297° |
| 2026-05-03 20:23 | 34.26924 | -88.15170 | 31466 ft | 419 kts | 297° |
| 2026-05-03 20:23 | 34.28422 | -88.18168 | 31286 ft | 417 kts | 297° |
| 2026-05-03 20:23 | 34.29930 | -88.21201 | 31077 ft | 427 kts | 297° |
| 2026-05-03 20:24 | 34.31464 | -88.24295 | 30833 ft | 435 kts | 297° |
| 2026-05-03 20:24 | 34.33034 | -88.27459 | 30564 ft | 435 kts | 298° |
| 2026-05-03 20:24 | 34.34592 | -88.30602 | 30290 ft | 439 kts | 298° |
| 2026-05-03 20:24 | 34.36161 | -88.33768 | 30017 ft | 439 kts | 298° |
| 2026-05-03 20:25 | 34.37722 | -88.36923 | 29757 ft | 438 kts | 298° |
| 2026-05-03 20:25 | 34.39273 | -88.40059 | 29497 ft | 437 kts | 298° |
| 2026-05-03 20:25 | 34.40821 | -88.43192 | 29235 ft | 436 kts | 298° |
| 2026-05-03 20:25 | 34.42388 | -88.46369 | 28969 ft | 435 kts | 298° |
| 2026-05-03 20:26 | 34.43935 | -88.49506 | 28633 ft | 434 kts | 298° |
| 2026-05-03 20:26 | 34.45467 | -88.52618 | 28139 ft | 431 kts | 299° |
| 2026-05-03 20:26 | 34.46991 | -88.55715 | 27529 ft | 428 kts | 299° |
| 2026-05-03 20:26 | 34.48492 | -88.58768 | 27010 ft | 422 kts | 299° |
| 2026-05-03 20:27 | 34.49985 | -88.61811 | 26462 ft | 419 kts | 299° |
| 2026-05-03 20:27 | 34.51454 | -88.64808 | 25766 ft | 417 kts | 299° |
| 2026-05-03 20:27 | 34.52930 | -88.67830 | 25013 ft | 416 kts | 298° |
| 2026-05-03 20:27 | 34.54380 | -88.70808 | 24259 ft | 414 kts | 298° |
| 2026-05-03 20:28 | 34.55853 | -88.73832 | 23494 ft | 413 kts | 299° |
| 2026-05-03 20:28 | 34.57301 | -88.76801 | 22735 ft | 412 kts | 299° |
| 2026-05-03 20:28 | 34.58740 | -88.79752 | 21979 ft | 409 kts | 299° |
| 2026-05-03 20:28 | 34.60192 | -88.82728 | 21219 ft | 408 kts | 299° |
| 2026-05-03 20:29 | 34.61619 | -88.85655 | 20473 ft | 406 kts | 299° |
| 2026-05-03 20:29 | 34.62920 | -88.88691 | 19735 ft | 401 kts | 294° |
| 2026-05-03 20:29 | 34.63969 | -88.91782 | 19014 ft | 399 kts | 289° |
| 2026-05-03 20:29 | 34.64788 | -88.94966 | 18430 ft | 393 kts | 285° |
| 2026-05-03 20:30 | 34.65486 | -88.98102 | 18163 ft | 378 kts | 285° |
| 2026-05-03 20:30 | 34.66149 | -89.01159 | 18125 ft | 377 kts | 285° |
| 2026-05-03 20:30 | 34.66823 | -89.04265 | 18116 ft | 379 kts | 285° |
| 2026-05-03 20:30 | 34.67494 | -89.07349 | 18112 ft | 380 kts | 285° |
| 2026-05-03 20:31 | 34.68182 | -89.10437 | 18110 ft | 381 kts | 286° |
| 2026-05-03 20:31 | 34.68895 | -89.13502 | 18136 ft | 382 kts | 287° |
| 2026-05-03 20:31 | 34.69622 | -89.16622 | 18153 ft | 381 kts | 287° |
| 2026-05-03 20:31 | 34.70342 | -89.19701 | 18161 ft | 382 kts | 287° |
| 2026-05-03 20:32 | 34.71061 | -89.22800 | 18164 ft | 382 kts | 287° |
| 2026-05-03 20:32 | 34.71783 | -89.25921 | 18162 ft | 381 kts | 287° |
| 2026-05-03 20:32 | 34.72486 | -89.29020 | 18161 ft | 382 kts | 286° |
| 2026-05-03 20:32 | 34.73181 | -89.32140 | 18161 ft | 382 kts | 286° |
| 2026-05-03 20:33 | 34.73860 | -89.35209 | 18160 ft | 382 kts | 286° |
| 2026-05-03 20:33 | 34.74549 | -89.38321 | 18160 ft | 382 kts | 286° |
| 2026-05-03 20:33 | 34.75233 | -89.41414 | 18061 ft | 377 kts | 286° |
| 2026-05-03 20:33 | 34.75910 | -89.44476 | 17578 ft | 373 kts | 286° |
| 2026-05-03 20:34 | 34.76597 | -89.47495 | 16910 ft | 370 kts | 289° |
| 2026-05-03 20:34 | 34.77548 | -89.50366 | 16286 ft | 367 kts | 297° |
| 2026-05-03 20:34 | 34.78785 | -89.53046 | 15809 ft | 359 kts | 301° |
| 2026-05-03 20:34 | 34.80077 | -89.55618 | 15333 ft | 351 kts | 302° |
| 2026-05-03 20:35 | 34.81313 | -89.58053 | 14663 ft | 339 kts | 302° |
| 2026-05-03 20:35 | 34.82524 | -89.60442 | 13898 ft | 327 kts | 302° |
| 2026-05-03 20:35 | 34.83692 | -89.62753 | 13139 ft | 316 kts | 302° |
| 2026-05-03 20:35 | 34.84827 | -89.65005 | 12378 ft | 306 kts | 302° |
| 2026-05-03 20:36 | 34.85907 | -89.67158 | 11864 ft | 291 kts | 301° |
| 2026-05-03 20:36 | 34.86934 | -89.69213 | 11268 ft | 282 kts | 302° |
| 2026-05-03 20:36 | 34.87941 | -89.71220 | 10645 ft | 275 kts | 302° |
| 2026-05-03 20:36 | 34.88908 | -89.73151 | 10211 ft | 265 kts | 302° |
| 2026-05-03 20:37 | 34.89866 | -89.75067 | 9858 ft | 265 kts | 302° |
| 2026-05-03 20:37 | 34.90827 | -89.76984 | 9544 ft | 264 kts | 302° |
| 2026-05-03 20:37 | 34.91780 | -89.78880 | 9279 ft | 259 kts | 302° |
| 2026-05-03 20:37 | 34.92712 | -89.80733 | 9073 ft | 258 kts | 301° |
| 2026-05-03 20:38 | 34.93655 | -89.82606 | 8925 ft | 259 kts | 301° |
| 2026-05-03 20:38 | 34.94615 | -89.84457 | 8847 ft | 259 kts | 307° |
| 2026-05-03 20:38 | 34.95996 | -89.85797 | 8651 ft | 257 kts | 339° |
| 2026-05-03 20:38 | 34.97764 | -89.86042 | 8329 ft | 260 kts | 360° |
| 2026-05-03 20:39 | 34.99591 | -89.85979 | 8059 ft | 264 kts | 358° |
| 2026-05-03 20:39 | 35.01445 | -89.85966 | 7780 ft | 268 kts | 357° |
| 2026-05-03 20:39 | 35.03294 | -89.85980 | 7467 ft | 264 kts | 357° |
| 2026-05-03 20:39 | 35.05129 | -89.86004 | 7146 ft | 262 kts | 356° |
| 2026-05-03 20:40 | 35.06941 | -89.86034 | 6774 ft | 260 kts | 356° |
| 2026-05-03 20:40 | 35.08734 | -89.86073 | 6382 ft | 260 kts | 356° |
| 2026-05-03 20:40 | 35.10568 | -89.86114 | 5998 ft | 259 kts | 356° |
| 2026-05-03 20:40 | 35.12369 | -89.86153 | 5543 ft | 263 kts | 356° |
| 2026-05-03 20:41 | 35.14208 | -89.86194 | 5077 ft | 264 kts | 356° |
| 2026-05-03 20:41 | 35.16044 | -89.86234 | 4621 ft | 267 kts | 357° |
| 2026-05-03 20:41 | 35.17929 | -89.86274 | 4192 ft | 268 kts | 357° |
| 2026-05-03 20:41 | 35.19751 | -89.86311 | 4046 ft | 257 kts | 357° |
| 2026-05-03 20:42 | 35.21526 | -89.86351 | 3913 ft | 255 kts | 356° |
| 2026-05-03 20:42 | 35.23311 | -89.86391 | 3771 ft | 256 kts | 356° |
| 2026-05-03 20:42 | 35.25087 | -89.86429 | 3567 ft | 256 kts | 357° |
| 2026-05-03 20:42 | 35.26856 | -89.86468 | 3327 ft | 255 kts | 357° |
| 2026-05-03 20:43 | 35.28640 | -89.86507 | 3068 ft | 254 kts | 357° |
| 2026-05-03 20:43 | 35.30388 | -89.86668 | 2954 ft | 247 kts | 342° |
| 2026-05-03 20:43 | 35.31730 | -89.87740 | 2953 ft | 223 kts | 301° |
| 2026-05-03 20:43 | 35.32120 | -89.89435 | 2967 ft | 200 kts | 261° |
| 2026-05-03 20:44 | 35.31666 | -89.90988 | 2989 ft | 196 kts | 233° |
| 2026-05-03 20:44 | 35.30701 | -89.92057 | 2961 ft | 184 kts | 206° |
| 2026-05-03 20:44 | 35.29513 | -89.92494 | 3056 ft | 179 kts | 193° |
| 2026-05-03 20:44 | 35.28328 | -89.92981 | 2983 ft | 178 kts | 211° |
| 2026-05-03 20:45 | 35.27474 | -89.94047 | 2959 ft | 178 kts | 241° |
| 2026-05-03 20:45 | 35.27002 | -89.95441 | 2968 ft | 178 kts | 248° |
| 2026-05-03 20:45 | 35.26452 | -89.96741 | 2903 ft | 163 kts | 226° |
| 2026-05-03 20:45 | 35.25529 | -89.97379 | 2886 ft | 145 kts | 197° |
| 2026-05-03 20:46 | 35.24533 | -89.97585 | 2912 ft | 146 kts | 187° |
| 2026-05-03 20:46 | 35.23524 | -89.97649 | 2939 ft | 146 kts | 184° |
| 2026-05-03 20:46 | 35.22496 | -89.97661 | 2894 ft | 148 kts | 182° |
| 2026-05-03 20:46 | 35.21478 | -89.97652 | 2657 ft | 146 kts | 182° |
| 2026-05-03 20:47 | 35.20456 | -89.97634 | 2428 ft | 145 kts | 182° |
| 2026-05-03 20:47 | 35.19443 | -89.97612 | 2190 ft | 146 kts | 182° |
| 2026-05-03 20:47 | 35.18428 | -89.97590 | 1907 ft | 145 kts | 182° |
| 2026-05-03 20:47 | 35.17431 | -89.97568 | 1627 ft | 143 kts | 181° |
| 2026-05-03 20:48 | 35.16435 | -89.97546 | 1348 ft | 142 kts | 181° |
| 2026-05-03 20:48 | 35.15457 | -89.97523 | 1108 ft | 140 kts | 181° |
| 2026-05-03 20:48 | 35.14478 | -89.97501 | 960 ft | 140 kts | 181° |
| 2026-05-03 20:48 | 35.13506 | -89.97480 | 764 ft | 139 kts | 181° |
| 2026-05-03 20:49 | 35.12544 | -89.97459 | 637 ft | 138 kts | 180° |
| 2026-05-03 20:49 | 35.11576 | -89.97437 | 594 ft | 138 kts | 181° |
| 2026-05-03 20:49 | 35.10604 | -89.97415 | 537 ft | 139 kts | 181° |
| 2026-05-03 20:49 | 35.09634 | -89.97392 | 588 ft | 141 kts | 181° |
| 2026-05-03 20:50 | 35.08641 | -89.97368 | 540 ft | 141 kts | 181° |
| 2026-05-03 20:50 | 35.07650 | -89.97343 | 561 ft | 142 kts | 181° |
| 2026-05-03 20:50 | 35.06656 | -89.97308 | 607 ft | 144 kts | 180° |
| 2026-05-03 20:50 | 35.05652 | -89.97282 | 480 ft | 143 kts | 183° |
| 2026-05-03 20:51 | 35.04657 | -89.97282 | 346 ft | 142 kts | 181° |
| 2026-05-03 20:51 | 35.03675 | -89.97254 | 308 ft | 127 kts | 182° |
| 2026-05-03 20:51 | 35.03213 | -89.97257 | 312 ft | 9 kts | 188° |
| 2026-05-03 20:51 | 35.03166 | -89.97307 | 315 ft | 7 kts | 254° |
| 2026-05-03 20:52 | 35.03162 | -89.97353 | 317 ft | 3 kts | 270° |
| 2026-05-03 20:52 | 35.03171 | -89.97398 | 319 ft | 16 kts | 296° |
| 2026-05-03 20:52 | 35.03273 | -89.97440 | 319 ft | 16 kts | 358° |
| 2026-05-03 20:52 | 35.03402 | -89.97444 | 317 ft | 22 kts | 358° |
| 2026-05-03 20:53 | 35.03558 | -89.97445 | 315 ft | 22 kts | 0° |
| 2026-05-03 20:53 | 35.03698 | -89.97450 | 312 ft | 20 kts | 359° |
| 2026-05-03 20:53 | 35.03843 | -89.97450 | 309 ft | 21 kts | 359° |
| 2026-05-03 20:53 | 35.04001 | -89.97452 | 303 ft | 21 kts | 358° |
| 2026-05-03 20:54 | 35.04149 | -89.97456 | 300 ft | 20 kts | 359° |
| 2026-05-03 20:54 | 35.04451 | -89.97464 | 291 ft | 22 kts | 358° |
| 2026-05-03 20:54 | 35.04602 | -89.97468 | 289 ft | 21 kts | 359° |
| 2026-05-03 20:55 | 35.04754 | -89.97472 | 286 ft | 22 kts | 359° |
| 2026-05-03 20:55 | 35.04913 | -89.97475 | 283 ft | 23 kts | 356° |
| 2026-05-03 20:55 | 35.05071 | -89.97484 | 280 ft | 20 kts | 359° |
| 2026-05-03 20:55 | 35.05214 | -89.97482 | 277 ft | 21 kts | 359° |
| 2026-05-03 20:56 | 35.05367 | -89.97485 | 275 ft | 22 kts | 360° |
| 2026-05-03 20:56 | 35.05524 | -89.97486 | 271 ft | 23 kts | 0° |
| 2026-05-03 20:56 | 35.05688 | -89.97488 | 265 ft | 23 kts | 359° |
| 2026-05-03 20:56 | 35.05834 | -89.97493 | 263 ft | 18 kts | 356° |
| 2026-05-03 20:57 | 35.05918 | -89.97473 | 263 ft | 9 kts | 50° |
| 2026-05-03 20:57 | 35.05947 | -89.97395 | 263 ft | 10 kts | 68° |
| 2026-05-03 20:57 | 35.05990 | -89.97357 | 263 ft | 6 kts | 7° |
| 2026-05-03 20:57 | 35.06028 | -89.97354 | 262 ft | 0 kts | 3° |
| 2026-05-03 20:58 | 35.06029 | -89.97354 | 262 ft | 0 kts | 3° |